Union Springs, Louisiana
Current Conditions -  °F | °C
As of 8:35 AM on Tuesday 21 Oct 2014 (Local Time) from KIER Reporting Station
Clear Clear  
Wind Chill: 59°   Ceiling: Unl
Heat Index: 59°   Visibility: 10mi
Dew Point: 57°   Wind: 0mph
Humidity: 95%   Direction: NA
Pressure: 30.1"   Gusts: NA
Location:  31.7915°N, 93.7011°W
Report Text: KIER 211335Z AUTO 00000KT 10SM CLR 15/14 A3010 RMK AO2 T01490141
Loading
Personal Weather Stations






























Interactive Weather Map
Tropical Storm Tracking
New forecast layout! Learn more

10-Day Weather Forecast

Advertisements
Track Severe Weather on mobile